Time;durP1;ratioP1;P1;durP2;ratioP2;P2;SDS_P1;SDS_P2;PMS_P1;PMS_P2;Temp;Humidity;BMP_temperature;BMP_pressure;BME280_temperature;BME280_humidity;BME280_pressure;Samples;Min_cycle;Max_cycle;Signal;HPM_P1;HPM_P2
2023/01/27 00:01:37;;;;;;;19.25;5.15;;;;;;;2.28;100.00;101151.53;5005617;27;20076;-77
2023/01/27 00:04:03;;;;;;;11.48;4.30;;;;;;;3.01;100.00;101267.03;5001507;27;20033;-76
2023/01/27 00:06:29;;;;;;;20.52;4.60;;;;;;;2.96;100.00;101252.38;5029838;27;20100;-77
2023/01/27 00:08:54;;;;;;;24.42;4.63;;;;;;;3.06;100.00;101267.03;4991599;27;20854;-78
2023/01/27 00:14:11;;;;;;;14.85;4.30;;;;;;;3.07;100.00;101256.66;5005925;27;20479;-76
2023/01/27 00:16:36;;;;;;;18.35;3.95;;;;;;;3.14;100.00;101256.59;4976270;28;20111;-77
2023/01/27 00:19:02;;;;;;;20.52;5.45;;;;;;;3.08;100.00;101245.38;4996080;28;20029;-77
2023/01/27 00:26:56;;;;;;;9.73;3.65;;;;;;;3.04;100.00;101263.59;4998355;27;20070;-77
2023/01/27 00:29:21;;;;;;;18.38;4.68;;;;;;;2.89;100.00;101235.09;5008297;27;20048;-77
2023/01/27 00:34:30;;;;;;;13.02;4.82;;;;;;;2.72;100.00;101217.03;4999125;27;20089;-78
2023/01/27 00:36:56;;;;;;;15.15;4.60;;;;;;;2.87;100.00;101250.66;5005661;27;20027;-77
2023/01/27 00:39:21;;;;;;;13.68;4.07;;;;;;;2.81;100.00;101242.94;4973929;28;20021;-77
2023/01/27 00:41:47;;;;;;;18.38;5.55;;;;;;;2.91;100.00;101262.78;5009763;27;20864;-77
2023/01/27 00:44:12;;;;;;;16.77;4.22;;;;;;;2.82;100.00;101239.47;4994308;27;20065;-77
2023/01/27 00:46:38;;;;;;;13.55;4.13;;;;;;;2.91;100.00;101270.56;4997620;27;20041;-77
2023/01/27 00:49:03;;;;;;;11.85;4.35;;;;;;;2.93;100.00;101265.38;5003555;27;20029;-79
2023/01/27 00:51:29;;;;;;;18.70;4.50;;;;;;;2.92;100.00;101264.50;5016645;27;20030;-78
2023/01/27 00:53:54;;;;;;;12.40;4.47;;;;;;;2.90;100.00;101261.06;4989109;27;20872;-79
2023/01/27 00:56:19;;;;;;;10.20;3.60;;;;;;;2.91;100.00;101254.97;4996568;27;20895;-78
2023/01/27 00:58:45;;;;;;;8.02;3.78;;;;;;;2.98;100.00;101259.28;5001283;27;20891;-77
2023/01/27 01:01:13;;;;;;;12.35;3.85;;;;;;;2.86;100.00;101243.78;4976376;27;20889;-77
2023/01/27 01:03:39;;;;;;;21.23;4.70;;;;;;;2.97;100.00;101265.31;4995624;27;20025;-75
2023/01/27 01:06:07;;;;;;;12.63;4.03;;;;;;;2.98;100.00;101261.88;4988108;27;20029;-78
2023/01/27 01:08:33;;;;;;;14.93;3.92;;;;;;;2.79;100.00;101242.09;5003286;27;20032;-78
2023/01/27 01:10:59;;;;;;;14.93;4.47;;;;;;;2.63;100.00;101206.72;4986684;27;20029;-78
2023/01/27 01:13:28;;;;;;;16.23;4.82;;;;;;;2.96;100.00;101263.63;4991290;27;20063;-79
2023/01/27 01:15:54;;;;;;;13.75;4.75;;;;;;;2.85;100.00;101257.63;4990662;27;20132;-78
2023/01/27 01:18:20;;;;;;;13.48;4.15;;;;;;;2.93;100.00;101270.56;4991491;27;20779;-79
2023/01/27 01:20:46;;;;;;;12.57;4.38;;;;;;;2.90;100.00;101276.63;5001816;27;20763;-78
2023/01/27 01:23:12;;;;;;;15.75;4.18;;;;;;;2.88;100.00;101272.31;4985964;27;20437;-79
2023/01/27 01:25:38;;;;;;;17.00;4.57;;;;;;;2.87;100.00;101281.81;4986019;27;20589;-79
2023/01/27 01:28:04;;;;;;;11.70;4.63;;;;;;;2.90;100.00;101281.81;5006161;27;20057;-79
2023/01/27 01:30:30;;;;;;;19.20;4.57;;;;;;;2.89;100.00;101282.69;4982882;28;20025;-80
2023/01/27 01:32:56;;;;;;;14.40;4.85;;;;;;;2.85;100.00;101268.00;4971715;28;20029;-80
2023/01/27 01:35:24;;;;;;;16.60;4.72;;;;;;;2.93;100.00;101291.31;5001732;27;20133;-78
2023/01/27 01:37:49;;;;;;;13.57;4.60;;;;;;;2.89;100.00;101285.28;4988223;27;20088;-79
2023/01/27 01:40:15;;;;;;;9.98;4.18;;;;;;;2.93;100.00;101297.38;5015920;27;20865;-79
2023/01/27 01:42:55;;;;;;;17.48;5.05;;;;;;;2.92;100.00;101290.47;4979330;27;20415;-76
2023/01/27 01:45:30;;;;;;;15.43;4.53;;;;;;;2.93;100.00;101301.72;5010408;28;20147;-78
2023/01/27 01:48:00;;;;;;;17.08;4.88;;;;;;;2.86;100.00;101290.50;4995746;27;20876;-79
2023/01/27 01:50:25;;;;;;;20.52;4.60;;;;;;;2.85;100.00;101280.97;4981740;27;20093;-78
2023/01/27 01:52:51;;;;;;;11.07;3.97;;;;;;;2.89;100.00;101287.88;5009518;27;20035;-79
2023/01/27 01:55:17;;;;;;;8.65;4.32;;;;;;;2.83;100.00;101274.94;4978723;28;20073;-79
2023/01/27 01:57:44;;;;;;;18.38;4.72;;;;;;;2.86;100.00;101282.72;4996298;27;20981;-79
2023/01/27 02:00:10;;;;;;;23.95;5.45;;;;;;;2.75;100.00;101266.31;4994023;27;20127;-79
2023/01/27 02:02:36;;;;;;;12.30;4.55;;;;;;;2.88;100.00;101288.75;4985060;27;20848;-79
2023/01/27 02:05:13;;;;;;;16.63;4.30;;;;;;;2.73;100.00;101270.66;5001620;27;20153;-79
2023/01/27 02:07:56;;;;;;;20.13;4.95;;;;;;;2.95;100.00;101298.22;4989459;27;20029;-78
2023/01/27 02:10:22;;;;;;;21.27;4.28;;;;;;;2.92;100.00;101300.84;4990649;27;20033;-77
2023/01/27 02:12:48;;;;;;;15.27;4.80;;;;;;;2.83;100.00;101293.09;5005065;27;20074;-78
2023/01/27 02:15:13;;;;;;;11.55;4.25;;;;;;;2.86;100.00;101294.81;4972896;28;20090;-78
2023/01/27 02:17:39;;;;;;;16.05;5.45;;;;;;;2.91;100.00;101299.09;4988385;27;20033;-78
2023/01/27 02:20:11;;;;;;;10.93;5.47;;;;;;;2.87;100.00;101292.19;4979921;28;20029;-79
2023/01/27 02:22:49;;;;;;;13.35;5.25;;;;;;;2.91;100.00;101293.91;4976484;28;20847;-78
2023/01/27 02:25:32;;;;;;;13.20;5.03;;;;;;;2.95;100.00;101306.00;5001008;27;20864;-78
2023/01/27 02:27:58;;;;;;;17.17;5.77;;;;;;;2.86;100.00;101280.13;5004421;27;20017;-78
2023/01/27 02:30:23;;;;;;;12.30;5.55;;;;;;;2.91;100.00;101287.84;4982944;27;20040;-77
2023/01/27 02:32:49;;;;;;;12.07;4.85;;;;;;;2.91;100.00;101288.72;5000834;27;20025;-79
2023/01/27 02:35:18;;;;;;;16.88;5.35;;;;;;;2.89;100.00;101290.47;4986770;27;20898;-78
2023/01/27 02:37:44;;;;;;;12.63;4.70;;;;;;;2.89;100.00;101285.28;5015259;27;20884;-78
2023/01/27 02:40:11;;;;;;;15.18;5.50;;;;;;;2.91;100.00;101293.91;5010903;27;20826;-76
2023/01/27 02:42:36;;;;;;;14.52;5.50;;;;;;;2.95;100.00;101299.94;4985523;27;20068;-76
2023/01/27 02:45:03;;;;;;;17.20;5.68;;;;;;;2.75;100.00;101274.09;5029325;27;20866;-77
2023/01/27 02:47:29;;;;;;;16.60;5.72;;;;;;;2.85;100.00;101299.13;4979895;27;20033;-76
2023/01/27 02:49:54;;;;;;;21.02;6.32;;;;;;;2.28;100.00;101200.81;5003815;27;20061;-76
2023/01/27 02:52:21;;;;;;;13.32;5.75;;;;;;;2.71;100.00;101267.19;4989989;28;20032;-77
2023/01/27 02:54:46;;;;;;;14.73;5.80;;;;;;;2.90;100.00;101291.34;4992355;27;20120;-79
2023/01/27 02:57:11;;;;;;;14.15;5.22;;;;;;;2.87;100.00;101291.34;4986474;27;20030;-78
2023/01/27 02:59:37;;;;;;;9.98;5.10;;;;;;;2.36;100.00;101209.44;4983168;28;20903;-75
2023/01/27 03:02:02;;;;;;;18.80;5.93;;;;;;;2.90;100.00;101300.00;5001427;27;20029;-75
2023/01/27 03:04:28;;;;;;;15.68;5.97;;;;;;;2.46;100.00;101237.91;5015292;28;20025;-76
2023/01/27 03:06:54;;;;;;;15.75;7.05;;;;;;;2.83;100.00;101306.06;4999883;27;20021;-76
2023/01/27 03:09:19;;;;;;;10.82;5.65;;;;;;;2.81;100.00;101300.00;4975180;28;20034;-79
2023/01/27 03:19:56;;;;;;;17.33;6.88;;;;;;;2.83;100.00;101308.69;4992842;27;20928;-79
2023/01/27 03:22:22;;;;;;;15.85;5.65;;;;;;;2.46;100.00;101247.41;4963509;28;20025;-78
2023/01/27 03:24:47;;;;;;;17.35;6.97;;;;;;;2.77;100.00;101303.47;5002890;27;20034;-78
2023/01/27 03:27:13;;;;;;;17.20;6.38;;;;;;;2.84;100.00;101312.13;5011500;27;20025;-79
2023/01/27 03:29:53;;;;;;;12.95;6.82;;;;;;;2.79;100.00;101306.94;5004479;27;20025;-77
2023/01/27 03:32:19;;;;;;;17.52;6.68;;;;;;;2.34;100.00;101226.69;4983454;27;20036;-77
2023/01/27 03:34:44;;;;;;;12.27;5.80;;;;;;;2.80;100.00;101316.47;4999804;27;20864;-79
2023/01/27 03:48:05;;;;;;;13.93;6.82;;;;;;;2.72;100.00;101314.75;5006679;27;20044;-79
2023/01/27 03:50:36;;;;;;;19.30;7.68;;;;;;;2.63;100.00;101296.63;4976661;27;20136;-79
2023/01/27 03:53:02;;;;;;;13.40;7.13;;;;;;;2.72;100.00;101313.03;5022699;27;20028;-75
2023/01/27 03:55:33;;;;;;;20.70;7.10;;;;;;;2.73;100.00;101319.97;4975305;28;20021;-76
2023/01/27 03:58:17;;;;;;;14.18;7.45;;;;;;;2.63;100.00;101292.31;4984391;27;20025;-81
2023/01/27 04:00:43;;;;;;;16.05;8.32;;;;;;;2.40;100.00;101268.19;4988433;27;20047;-80
2023/01/27 04:08:36;;;;;;;15.52;8.30;;;;;;;2.70;100.00;101324.28;4992783;27;20032;-80
2023/01/27 04:13:47;;;;;;;19.20;8.43;;;;;;;2.76;100.00;101352.81;5026613;27;20047;-82
2023/01/27 04:16:12;;;;;;;18.15;8.98;;;;;;;2.75;100.00;101351.06;5004320;27;20041;-82
2023/01/27 04:18:38;;;;;;;15.18;9.50;;;;;;;2.69;100.00;101349.38;4973786;28;20036;-76
2023/01/27 04:21:03;;;;;;;17.70;11.30;;;;;;;2.03;100.00;101239.75;4990526;27;20076;-81
2023/01/27 04:23:29;;;;;;;21.75;12.70;;;;;;;2.61;100.00;101345.91;5024320;27;20098;-79
2023/01/27 04:25:55;;;;;;;24.48;13.10;;;;;;;2.65;100.00;101352.84;4994654;27;20816;-78
2023/01/27 04:28:21;;;;;;;23.38;12.75;;;;;;;2.60;100.00;101359.78;4998783;27;20021;-78
2023/01/27 04:30:47;;;;;;;22.00;13.73;;;;;;;2.41;100.00;101314.84;5007646;27;20021;-78
2023/01/27 04:33:14;;;;;;;20.05;12.48;;;;;;;2.62;100.00;101367.53;5004317;27;20079;-78
2023/01/27 04:35:43;;;;;;;23.63;13.57;;;;;;;2.56;100.00;101352.88;4996982;27;20090;-77
2023/01/27 04:38:09;;;;;;;26.73;13.13;;;;;;;2.62;100.00;101355.44;5009165;27;20876;-80
2023/01/27 04:40:34;;;;;;;18.33;11.75;;;;;;;2.67;100.00;101366.66;5002792;27;20031;-80
2023/01/27 04:43:00;;;;;;;21.25;13.50;;;;;;;1.99;100.00;101260.50;5000122;27;20021;-81
2023/01/27 04:45:25;;;;;;;25.98;14.80;;;;;;;2.65;100.00;101372.72;4993539;27;20144;-79
2023/01/27 04:47:51;;;;;;;21.98;14.00;;;;;;;2.67;100.00;101371.00;5000530;27;20917;-77
2023/01/27 04:50:16;;;;;;;29.50;14.93;;;;;;;2.64;100.00;101371.00;4989688;27;20033;-77
2023/01/27 04:52:44;;;;;;;28.17;15.48;;;;;;;2.64;100.00;101369.25;5005454;27;20075;-74
2023/01/27 04:55:10;;;;;;;24.73;15.95;;;;;;;2.63;100.00;101385.72;5005133;27;20079;-79
2023/01/27 04:57:35;;;;;;;20.92;15.05;;;;;;;2.61;100.00;101381.38;4995167;27;20025;-79
2023/01/27 05:00:02;;;;;;;27.80;16.35;;;;;;;2.51;100.00;101375.34;5007994;27;20079;-79
2023/01/27 05:02:28;;;;;;;27.67;17.02;;;;;;;2.58;100.00;101390.91;5002229;27;20089;-79
2023/01/27 05:04:53;;;;;;;28.23;16.42;;;;;;;2.52;100.00;101377.94;5002225;27;20144;-79
2023/01/27 05:07:19;;;;;;;24.25;16.58;;;;;;;1.87;100.00;101282.09;4981122;27;20173;-77
2023/01/27 05:09:44;;;;;;;23.95;15.82;;;;;;;2.42;100.00;101380.56;4995909;27;20045;-79
2023/01/27 05:12:10;;;;;;;30.92;16.52;;;;;;;1.73;100.00;101278.66;4996113;27;20029;-76
2023/01/27 05:14:35;;;;;;;25.30;16.20;;;;;;;2.48;100.00;101406.47;4978339;28;20105;-74
2023/01/27 05:17:01;;;;;;;26.60;14.88;;;;;;;2.45;100.00;101393.50;4993367;27;20076;-75
2023/01/27 05:19:26;;;;;;;22.48;14.90;;;;;;;2.43;100.00;101397.84;5000835;27;20189;-73
2023/01/27 05:21:51;;;;;;;22.88;14.60;;;;;;;2.08;100.00;101358.97;5002549;27;20025;-75
2023/01/27 05:24:17;;;;;;;21.95;13.18;;;;;;;2.33;100.00;101396.13;5002863;27;20036;-75
2023/01/27 05:26:42;;;;;;;22.95;13.02;;;;;;;2.45;100.00;101417.72;4987127;28;20808;-77
2023/01/27 05:29:08;;;;;;;19.75;12.75;;;;;;;2.42;100.00;101415.13;4973558;28;20042;-76
2023/01/27 05:31:34;;;;;;;17.27;12.35;;;;;;;2.32;100.00;101410.81;5031215;27;20034;-79
2023/01/27 05:34:00;;;;;;;16.27;11.27;;;;;;;2.33;100.00;101411.69;5053604;27;20320;-77
2023/01/27 05:36:26;;;;;;;16.20;10.60;;;;;;;2.32;100.00;101422.91;5025792;27;20120;-77
2023/01/27 05:38:53;;;;;;;15.98;9.30;;;;;;;2.05;100.00;101380.56;5006383;27;20084;-77
2023/01/27 05:41:19;;;;;;;13.77;9.93;;;;;;;2.31;100.00;101423.75;4987790;28;20029;-77
2023/01/27 05:43:45;;;;;;;14.32;9.65;;;;;;;2.31;100.00;101428.94;4973400;27;20027;-76
2023/01/27 05:46:16;;;;;;;19.05;10.05;;;;;;;2.16;100.00;101398.72;4997027;27;20032;-77
2023/01/27 05:48:43;;;;;;;19.27;10.13;;;;;;;1.52;100.00;101307.16;4990615;27;20029;-79
2023/01/27 05:51:09;;;;;;;14.80;10.18;;;;;;;2.08;100.00;101391.78;4995903;27;20029;-78
2023/01/27 05:53:35;;;;;;;15.35;9.85;;;;;;;2.18;100.00;101412.53;4979678;28;20128;-78
2023/01/27 05:56:01;;;;;;;22.45;9.80;;;;;;;2.08;100.00;101396.97;4979357;28;20831;-77
2023/01/27 05:58:26;;;;;;;15.95;10.00;;;;;;;2.23;100.00;101426.34;4998190;27;20063;-76
2023/01/27 06:00:53;;;;;;;20.60;10.05;;;;;;;2.14;100.00;101415.13;4995091;27;20759;-75
2023/01/27 06:03:18;;;;;;;24.83;12.07;;;;;;;2.13;100.00;101410.81;4969653;28;20141;-75
2023/01/27 06:05:56;;;;;;;19.73;10.73;;;;;;;2.22;100.00;101428.97;4980997;28;20066;-76
2023/01/27 06:08:23;;;;;;;18.20;11.23;;;;;;;2.23;100.00;101431.53;4987401;27;20025;-76
2023/01/27 06:10:50;;;;;;;20.58;11.85;;;;;;;2.23;100.00;101431.53;4974658;28;20025;-76
2023/01/27 06:13:16;;;;;;;18.58;11.27;;;;;;;2.21;100.00;101419.44;4997252;27;20119;-76
2023/01/27 06:15:45;;;;;;;20.58;13.93;;;;;;;2.19;100.00;101416.88;4995952;27;20073;-75
2023/01/27 06:18:11;;;;;;;22.15;13.38;;;;;;;2.13;100.00;101416.00;4977808;28;20146;-76
2023/01/27 06:20:38;;;;;;;24.63;12.60;;;;;;;2.00;100.00;101392.66;5006166;27;20021;-75
2023/01/27 06:23:04;;;;;;;17.08;11.60;;;;;;;2.10;100.00;101411.66;4983013;27;20037;-76
2023/01/27 06:25:30;;;;;;;18.63;12.70;;;;;;;2.11;100.00;101417.72;5007645;28;20234;-74
2023/01/27 06:27:56;;;;;;;21.02;15.80;;;;;;;2.12;100.00;101416.84;4986252;27;20142;-74
2023/01/27 06:30:22;;;;;;;19.98;12.75;;;;;;;2.03;100.00;101417.69;4975451;27;20814;-75
2023/01/27 06:32:48;;;;;;;21.40;13.55;;;;;;;2.06;100.00;101420.31;4985952;27;20029;-76
2023/01/27 06:35:13;;;;;;;18.83;12.60;;;;;;;2.10;100.00;101434.13;4989845;27;20025;-77
2023/01/27 06:37:38;;;;;;;21.90;13.90;;;;;;;2.07;100.00;101429.81;4997545;27;20857;-77
2023/01/27 06:40:05;;;;;;;20.55;12.60;;;;;;;2.02;100.00;101428.94;4969726;28;20446;-75
2023/01/27 06:42:30;;;;;;;26.08;13.40;;;;;;;1.90;100.00;101406.47;4996517;27;20096;-77
2023/01/27 06:44:55;;;;;;;20.83;14.73;;;;;;;2.00;100.00;101438.44;4982952;28;21062;-75
2023/01/27 06:47:21;;;;;;;19.63;14.57;;;;;;;2.06;100.00;101439.31;4959570;28;20054;-76
2023/01/27 06:49:46;;;;;;;20.25;12.60;;;;;;;2.06;100.00;101441.06;4989474;27;20033;-73
2023/01/27 06:52:12;;;;;;;24.63;14.68;;;;;;;2.00;100.00;101422.88;5015275;27;20041;-73
2023/01/27 06:54:37;;;;;;;20.90;14.82;;;;;;;1.62;100.00;101367.56;5041446;27;20811;-74
2023/01/27 06:57:03;;;;;;;24.15;14.75;;;;;;;2.10;100.00;101447.06;4992772;28;20021;-73
2023/01/27 06:59:28;;;;;;;20.77;14.73;;;;;;;1.52;100.00;101353.75;4972591;28;20802;-74
2023/01/27 07:01:53;;;;;;;21.00;14.75;;;;;;;2.08;100.00;101448.81;5001668;27;20025;-73
2023/01/27 07:04:19;;;;;;;19.55;14.30;;;;;;;1.35;100.00;101327.78;5007597;27;20031;-76
2023/01/27 07:06:44;;;;;;;23.73;14.93;;;;;;;2.09;100.00;101441.06;4998120;27;20033;-75
2023/01/27 07:09:10;;;;;;;26.17;15.93;;;;;;;2.12;100.00;101450.56;4992460;28;20025;-76
2023/01/27 07:11:35;;;;;;;28.40;15.63;;;;;;;2.18;100.00;101466.97;5001808;27;20034;-76
2023/01/27 07:14:01;;;;;;;22.08;15.48;;;;;;;2.17;100.00;101465.25;5001402;27;20119;-75
2023/01/27 07:16:27;;;;;;;24.70;15.75;;;;;;;2.16;100.00;101454.88;5007353;27;20087;-75
2023/01/27 07:18:52;;;;;;;23.55;15.80;;;;;;;2.14;100.00;101456.59;4993627;27;20886;-75
2023/01/27 07:21:18;;;;;;;25.92;15.88;;;;;;;2.23;100.00;101472.19;5049737;27;20083;-77
2023/01/27 07:23:43;;;;;;;23.40;15.45;;;;;;;2.19;100.00;101455.75;4962582;28;20044;-78
2023/01/27 07:26:09;;;;;;;25.83;15.32;;;;;;;2.16;100.00;101457.47;4984108;28;20026;-75
2023/01/27 07:28:34;;;;;;;27.05;17.35;;;;;;;2.17;100.00;101466.97;5012562;27;20881;-76
2023/01/27 07:31:01;;;;;;;28.02;16.27;;;;;;;2.04;100.00;101447.94;5005385;27;20032;-74
2023/01/27 07:33:26;;;;;;;23.80;15.85;;;;;;;2.11;100.00;101451.41;4993730;27;20125;-75
2023/01/27 07:35:52;;;;;;;19.65;14.68;;;;;;;2.14;100.00;101462.66;4986079;28;20044;-75
2023/01/27 07:38:17;;;;;;;25.98;16.15;;;;;;;1.73;100.00;101387.44;4976627;28;20091;-75
2023/01/27 07:40:43;;;;;;;23.77;15.60;;;;;;;2.22;100.00;101467.84;5001449;27;20101;-76
2023/01/27 07:43:10;;;;;;;22.30;15.77;;;;;;;2.15;100.00;101459.19;5013907;27;20932;-75
2023/01/27 07:45:35;;;;;;;23.65;14.30;;;;;;;2.19;100.00;101467.84;4992612;27;21000;-75
2023/01/27 07:48:03;;;;;;;25.67;16.77;;;;;;;2.23;100.00;101472.19;4983681;27;20028;-75
2023/01/27 07:50:28;;;;;;;22.77;15.00;;;;;;;2.23;100.00;101474.78;4991965;28;20028;-77
2023/01/27 07:52:58;;;;;;;21.23;15.82;;;;;;;2.27;100.00;101468.69;4980543;28;20041;-74
2023/01/27 07:55:23;;;;;;;19.88;15.15;;;;;;;2.24;100.00;101473.88;4986995;27;20140;-76
2023/01/27 07:57:52;;;;;;;18.77;14.55;;;;;;;1.98;100.00;101429.81;5003680;27;20818;-75
2023/01/27 08:00:20;;;;;;;18.83;14.00;;;;;;;2.22;100.00;101465.25;4998868;27;20022;-76
2023/01/27 08:02:55;;;;;;;22.35;13.77;;;;;;;2.26;100.00;101478.22;4974057;28;20029;-76
2023/01/27 08:05:24;;;;;;;21.42;13.50;;;;;;;2.30;100.00;101476.50;5023371;27;20144;-76
2023/01/27 08:07:50;;;;;;;27.15;14.38;;;;;;;2.35;100.00;101488.59;4985345;27;20582;-76
2023/01/27 08:10:17;;;;;;;21.60;14.30;;;;;;;2.35;100.00;101487.72;5022067;27;20874;-78
2023/01/27 08:12:43;;;;;;;23.58;15.23;;;;;;;2.36;100.00;101485.16;4988564;27;20369;-76
2023/01/27 08:15:09;;;;;;;22.52;14.73;;;;;;;2.33;100.00;101479.09;4988229;28;20025;-76
2023/01/27 08:17:35;;;;;;;17.98;13.23;;;;;;;2.39;100.00;101486.88;4988575;28;20028;-75
2023/01/27 08:20:00;;;;;;;18.55;11.40;;;;;;;2.03;100.00;101436.72;4983799;28;20033;-75
2023/01/27 08:22:29;;;;;;;17.98;12.40;;;;;;;1.85;100.00;101392.66;5002944;27;20556;-76
2023/01/27 08:24:54;;;;;;;16.67;11.70;;;;;;;1.84;100.00;101396.09;4997895;27;20021;-76
2023/01/27 08:27:20;;;;;;;17.40;12.02;;;;;;;2.49;100.00;101496.38;4997498;27;20809;-76
2023/01/27 08:29:45;;;;;;;20.65;13.27;;;;;;;2.50;100.00;101490.34;4979184;27;20033;-75
2023/01/27 08:32:11;;;;;;;17.27;12.00;;;;;;;2.48;100.00;101476.50;4991033;27;20029;-76
2023/01/27 08:34:38;;;;;;;17.15;12.57;;;;;;;2.56;100.00;101487.75;4986236;27;20049;-76
2023/01/27 08:37:04;;;;;;;17.73;12.43;;;;;;;2.59;100.00;101485.16;5006033;27;20960;-76
2023/01/27 08:39:30;;;;;;;18.58;13.32;;;;;;;2.64;100.00;101488.59;5014935;27;20029;-76
2023/01/27 08:41:56;;;;;;;19.30;12.07;;;;;;;2.59;100.00;101485.16;5005691;27;20033;-76
2023/01/27 08:44:21;;;;;;;17.55;12.35;;;;;;;2.28;100.00;101441.91;4991801;27;20941;-75
2023/01/27 08:46:47;;;;;;;18.90;14.32;;;;;;;2.69;100.00;101483.41;5012478;27;20021;-76
2023/01/27 08:49:14;;;;;;;18.23;12.73;;;;;;;2.68;100.00;101476.47;5026808;27;20933;-76
2023/01/27 08:51:39;;;;;;;18.60;12.20;;;;;;;2.71;100.00;101479.06;5010207;27;20066;-75
2023/01/27 08:54:05;;;;;;;16.73;12.80;;;;;;;2.55;100.00;101454.88;4987439;27;20049;-76
2023/01/27 08:56:31;;;;;;;14.50;11.75;;;;;;;2.73;100.00;101485.16;5010900;27;20029;-75
2023/01/27 08:58:56;;;;;;;18.95;13.10;;;;;;;2.76;100.00;101491.19;5018259;27;20051;-75
2023/01/27 09:01:22;;;;;;;19.00;12.43;;;;;;;2.64;100.00;101457.47;4994903;27;20038;-76
2023/01/27 09:03:50;;;;;;;16.63;13.15;;;;;;;2.86;100.00;101492.03;4990589;27;20021;-76
2023/01/27 09:06:16;;;;;;;18.27;12.23;;;;;;;2.79;100.00;101470.44;4991664;27;20060;-76
2023/01/27 09:08:41;;;;;;;16.50;12.75;;;;;;;2.96;100.00;101497.22;5002730;27;20037;-76
2023/01/27 09:11:12;;;;;;;17.60;12.73;;;;;;;2.91;100.00;101485.09;4999850;27;20094;-76
2023/01/27 09:13:38;;;;;;;28.90;15.88;;;;;;;2.90;100.00;101483.41;4979626;28;20090;-76
2023/01/27 09:16:04;;;;;;;15.90;11.80;;;;;;;2.97;100.00;101496.34;5009911;27;20812;-77
2023/01/27 09:18:29;;;;;;;18.55;12.75;;;;;;;2.98;100.00;101508.47;4996153;27;20124;-76
2023/01/27 09:20:55;;;;;;;14.77;11.25;;;;;;;2.88;100.00;101496.38;4995962;27;20032;-73
2023/01/27 09:23:20;;;;;;;17.45;12.32;;;;;;;2.96;100.00;101509.34;4983127;28;20033;-76
2023/01/27 09:25:46;;;;;;;16.23;11.52;;;;;;;2.96;100.00;101512.81;5001314;27;20188;-77
2023/01/27 09:28:17;;;;;;;17.13;12.23;;;;;;;2.97;100.00;101509.31;4997944;27;20888;-74
2023/01/27 09:30:44;;;;;;;16.98;11.68;;;;;;;3.08;100.00;101520.56;5015795;27;20037;-74
2023/01/27 09:33:10;;;;;;;18.25;12.20;;;;;;;2.84;100.00;101499.81;4994276;27;20045;-76
2023/01/27 09:35:41;;;;;;;14.18;11.07;;;;;;;3.14;100.00;101521.44;5016043;27;20048;-74
2023/01/27 09:38:08;;;;;;;18.02;11.95;;;;;;;3.14;100.00;101521.44;4983824;28;20128;-75
2023/01/27 09:40:46;;;;;;;16.52;10.93;;;;;;;3.23;100.00;101529.19;5003657;27;20089;-77
2023/01/27 09:43:37;;;;;;;17.38;11.02;;;;;;;3.24;100.00;101531.81;4987135;28;20125;-72
2023/01/27 09:46:14;;;;;;;15.80;10.77;;;;;;;3.21;100.00;101533.53;4994376;27;20017;-74
2023/01/27 09:48:42;;;;;;;20.95;11.15;;;;;;;3.20;100.00;101529.19;4995305;27;20126;-73
2023/01/27 09:51:37;;;;;;;18.42;10.95;;;;;;;3.22;100.00;101530.91;4995866;27;20060;-75
2023/01/27 09:54:27;;;;;;;14.85;11.55;;;;;;;3.25;100.00;101530.03;4994199;27;20036;-73
2023/01/27 09:57:22;;;;;;;13.65;11.15;;;;;;;3.24;100.00;101543.91;4977713;27;20036;-73
2023/01/27 10:00:09;;;;;;;15.60;10.70;;;;;;;3.26;100.00;101534.38;5004434;27;20048;-75
2023/01/27 10:03:16;;;;;;;14.88;10.98;;;;;;;3.02;100.00;101515.38;5005762;27;20197;-73
2023/01/27 10:05:44;;;;;;;15.02;10.02;;;;;;;3.24;100.00;101536.13;5004190;27;20060;-73
2023/01/27 10:08:46;;;;;;;15.50;9.38;;;;;;;3.21;100.00;101543.94;5048023;27;20037;-75
2023/01/27 10:11:17;;;;;;;12.48;9.40;;;;;;;3.20;100.00;101539.59;4992988;27;20221;-76
2023/01/27 10:14:02;;;;;;;14.23;9.93;;;;;;;3.29;100.00;101544.75;5028906;27;20027;-76
2023/01/27 10:17:08;;;;;;;12.55;9.23;;;;;;;3.24;100.00;101533.53;5029828;27;20039;-76
2023/01/27 10:20:02;;;;;;;12.60;9.10;;;;;;;3.30;100.00;101544.78;4990436;27;20042;-74
2023/01/27 10:22:51;;;;;;;13.65;9.52;;;;;;;3.33;100.00;101541.28;5008771;27;20080;-75
2023/01/27 10:25:22;;;;;;;12.32;9.23;;;;;;;3.34;100.00;101543.03;5031912;27;20041;-75
2023/01/27 10:27:54;;;;;;;11.48;7.97;;;;;;;3.35;100.00;101549.94;5033264;27;20030;-76
2023/01/27 10:30:32;;;;;;;10.80;7.90;;;;;;;3.29;100.00;101535.25;5014811;27;20035;-77
2023/01/27 10:33:17;;;;;;;14.45;8.88;;;;;;;3.37;100.00;101556.00;5008607;27;20089;-75
2023/01/27 10:35:49;;;;;;;11.10;8.50;;;;;;;2.99;100.00;101488.56;5026750;27;20891;-73
2023/01/27 10:38:17;;;;;;;10.40;8.00;;;;;;;3.37;100.00;101543.03;5022210;27;20059;-75
2023/01/27 10:41:15;;;;;;;11.27;8.05;;;;;;;3.36;100.00;101547.34;4997577;27;20932;-75
2023/01/27 10:44:01;;;;;;;14.10;8.20;;;;;;;3.36;100.00;101539.56;4959917;28;20157;-75
2023/01/27 10:46:44;;;;;;;11.10;8.65;;;;;;;3.13;100.00;101507.59;4991641;27;20837;-75
2023/01/27 10:49:22;;;;;;;13.82;8.75;;;;;;;3.37;100.00;101535.22;4987498;28;20066;-77
2023/01/27 10:52:10;;;;;;;12.10;8.25;;;;;;;3.34;100.00;101538.69;4994472;27;20037;-75
2023/01/27 10:54:54;;;;;;;10.93;7.85;;;;;;;3.36;100.00;101536.09;4993612;27;20047;-75
2023/01/27 10:57:27;;;;;;;14.27;8.82;;;;;;;3.35;100.00;101530.03;5007510;27;20037;-76
2023/01/27 11:00:00;;;;;;;12.70;7.50;;;;;;;3.41;100.00;101534.34;5031922;28;20033;-76
2023/01/27 11:03:08;;;;;;;11.13;7.88;;;;;;;3.46;100.00;101542.97;5047715;28;20043;-75
2023/01/27 11:05:45;;;;;;;14.75;7.55;;;;;;;3.38;100.00;101523.97;5031174;28;20053;-75
2023/01/27 11:08:16;;;;;;;10.43;6.75;;;;;;;3.38;100.00;101535.19;5037199;28;20036;-78
2023/01/27 11:13:30;;;;;;;10.98;7.47;;;;;;;3.38;100.00;101514.41;5038090;27;20399;-74
2023/01/27 11:15:56;;;;;;;11.77;7.85;;;;;;;3.44;100.00;101529.16;5016981;27;20060;-74
2023/01/27 11:18:25;;;;;;;9.52;7.13;;;;;;;3.42;100.00;101528.25;5029985;27;20090;-76
2023/01/27 11:20:52;;;;;;;9.65;7.43;;;;;;;3.46;100.00;101530.88;5042952;27;20017;-74
2023/01/27 11:23:20;;;;;;;10.82;7.22;;;;;;;3.40;100.00;101519.63;5021278;28;20034;-74
2023/01/27 11:25:53;;;;;;;12.02;7.32;;;;;;;3.46;100.00;101532.59;5029988;27;20032;-75
2023/01/27 11:28:38;;;;;;;10.15;7.70;;;;;;;3.46;100.00;101520.47;5056561;27;20042;-73
2023/01/27 11:31:12;;;;;;;8.70;7.18;;;;;;;3.48;100.00;101525.69;5048277;27;20083;-75
2023/01/27 11:33:50;;;;;;;9.73;7.03;;;;;;;3.49;100.00;101515.25;5095518;27;20136;-74
2023/01/27 11:36:16;;;;;;;10.02;7.10;;;;;;;3.55;100.00;101512.63;5051207;28;20036;-76
2023/01/27 11:38:41;;;;;;;10.57;7.55;;;;;;;3.57;100.00;101516.13;5037511;28;20037;-74
2023/01/27 11:41:07;;;;;;;10.05;6.75;;;;;;;3.57;100.00;101504.84;5059660;27;20027;-76
2023/01/27 11:43:33;;;;;;;10.65;7.93;;;;;;;3.65;100.00;101510.88;5013943;28;20033;-75
2023/01/27 11:46:01;;;;;;;9.73;7.47;;;;;;;3.58;100.00;101491.84;5039834;27;20045;-75
2023/01/27 11:48:35;;;;;;;9.30;7.60;;;;;;;3.56;100.00;101497.91;5053630;27;20020;-75
2023/01/27 11:51:02;;;;;;;11.20;8.52;;;;;;;3.68;100.00;101503.09;5021154;28;20403;-73
2023/01/27 11:53:35;;;;;;;13.93;8.98;;;;;;;3.80;100.00;101505.63;5047065;27;20109;-73
2023/01/27 11:56:09;;;;;;;12.18;8.30;;;;;;;3.86;100.00;101517.69;5095877;27;20111;-75
2023/01/27 11:59:01;;;;;;;8.27;6.40;;;;;;;3.81;100.00;101509.09;5004804;28;20077;-76
2023/01/27 12:02:05;;;;;;;11.52;7.82;;;;;;;3.88;100.00;101511.66;5029195;28;20025;-75
2023/01/27 12:04:37;;;;;;;12.15;8.80;;;;;;;3.80;100.00;101507.34;5053337;28;20089;-74